createdAt,value
2022-09-11T00:01:35.322Z,19.29
2022-09-11T00:04:03.835Z,19.31
2022-09-11T00:06:31.157Z,19.31
2022-09-11T00:09:05.705Z,19.30
2022-09-11T00:11:41.969Z,19.33
2022-09-11T00:14:14.681Z,19.29
2022-09-11T00:16:46.174Z,19.24
2022-09-11T00:19:19.075Z,19.28
2022-09-11T00:21:47.701Z,19.23
2022-09-11T00:24:14.899Z,19.23
2022-09-11T00:26:42.409Z,19.23
2022-09-11T00:29:10.944Z,19.21
2022-09-11T00:31:38.628Z,19.19
2022-09-11T00:34:07.047Z,19.15
2022-09-11T00:36:36.277Z,19.08
2022-09-11T00:39:03.900Z,19.03
2022-09-11T00:41:40.384Z,19.08
2022-09-11T00:44:12.052Z,19.07
2022-09-11T00:46:53.204Z,19.02
2022-09-11T00:49:46.599Z,19.04
2022-09-11T00:52:31.305Z,19.01
2022-09-11T00:55:12.146Z,18.96
2022-09-11T00:58:06.906Z,18.94
2022-09-11T01:00:35.121Z,18.87
2022-09-11T01:03:03.533Z,18.73
2022-09-11T01:05:34.697Z,18.59
2022-09-11T01:08:03.778Z,18.54
2022-09-11T01:11:23.478Z,18.49
2022-09-11T01:14:05.225Z,18.49
2022-09-11T01:16:49.860Z,18.38
2022-09-11T01:19:53.520Z,18.39
2022-09-11T01:23:17.394Z,18.37
2022-09-11T01:26:22.400Z,18.29
2022-09-11T01:29:20.864Z,18.23
2022-09-11T01:32:29.237Z,18.17
2022-09-11T01:35:21.137Z,18.14
2022-09-11T01:38:11.674Z,18.12
2022-09-11T01:40:51.256Z,18.10
2022-09-11T01:43:33.057Z,18.04
2022-09-11T01:46:07.289Z,18.13
2022-09-11T01:48:50.903Z,18.11
2022-09-11T01:51:26.712Z,18.05
2022-09-11T01:53:54.284Z,18.05
2022-09-11T01:56:34.264Z,18.02
2022-09-11T01:59:07.542Z,18.17
2022-09-11T02:01:42.476Z,18.20
2022-09-11T02:04:30.956Z,18.15
2022-09-11T02:07:14.332Z,18.10
2022-09-11T02:09:53.987Z,18.03
2022-09-11T02:12:31.346Z,17.96
2022-09-11T02:14:59.517Z,17.87
2022-09-11T02:17:56.308Z,17.89
2022-09-11T02:20:29.092Z,17.82
2022-09-11T02:22:56.916Z,17.74
2022-09-11T02:25:24.933Z,17.67
2022-09-11T02:27:56.291Z,17.63
2022-09-11T02:30:23.788Z,17.57
2022-09-11T02:32:51.103Z,17.58
2022-09-11T02:35:18.437Z,17.53
2022-09-11T02:38:30.172Z,17.56
2022-09-11T02:42:12.403Z,17.58
2022-09-11T02:45:34.369Z,17.52
2022-09-11T02:48:43.261Z,17.41
2022-09-11T02:51:48.272Z,17.45
2022-09-11T02:54:57.007Z,17.42
2022-09-11T02:57:39.470Z,17.33
2022-09-11T03:00:09.769Z,17.29
2022-09-11T03:02:42.995Z,17.23
2022-09-11T03:05:11.888Z,17.27
2022-09-11T03:07:41.452Z,17.27
2022-09-11T03:10:11.173Z,17.33
2022-09-11T03:12:39.998Z,17.28
2022-09-11T03:15:10.346Z,17.28
2022-09-11T03:17:37.805Z,17.24
2022-09-11T03:20:07.054Z,17.24
2022-09-11T03:22:34.421Z,17.19
2022-09-11T03:25:03.765Z,17.13
2022-09-11T03:27:31.926Z,17.08
2022-09-11T03:30:00.154Z,17.04
2022-09-11T03:32:27.309Z,17.05
2022-09-11T03:34:57.072Z,17.10
2022-09-11T03:37:24.501Z,17.04
2022-09-11T03:39:54.668Z,16.94
2022-09-11T03:42:22.270Z,16.92
2022-09-11T03:44:49.478Z,17.03
2022-09-11T03:47:16.873Z,17.02
2022-09-11T03:49:44.014Z,17.00
2022-09-11T03:52:11.902Z,17.00
2022-09-11T03:54:39.854Z,16.77
2022-09-11T03:57:07.452Z,16.77
2022-09-11T03:59:39.102Z,16.71
2022-09-11T04:02:06.430Z,16.82
2022-09-11T04:04:34.253Z,16.80
2022-09-11T04:07:01.448Z,16.81
2022-09-11T04:09:29.257Z,16.81
2022-09-11T04:11:58.497Z,16.82
2022-09-11T04:14:28.055Z,16.75
2022-09-11T04:16:59.444Z,16.74
2022-09-11T04:19:29.368Z,16.77
2022-09-11T04:21:57.006Z,16.77
2022-09-11T04:24:25.672Z,16.75
2022-09-11T04:26:55.311Z,16.89
2022-09-11T04:29:28.772Z,16.87
2022-09-11T04:31:57.753Z,16.90
2022-09-11T04:34:29.181Z,16.89
2022-09-11T04:36:57.173Z,16.78
2022-09-11T04:39:26.196Z,16.71
2022-09-11T04:41:54.474Z,16.67
2022-09-11T04:44:21.855Z,16.56
2022-09-11T04:46:49.278Z,16.47
2022-09-11T04:49:18.001Z,16.53
2022-09-11T04:51:47.121Z,16.50
2022-09-11T04:54:23.626Z,16.40
2022-09-11T04:56:51.908Z,16.40
2022-09-11T04:59:23.438Z,16.37
2022-09-11T05:01:56.735Z,16.40
2022-09-11T05:04:26.346Z,16.43
2022-09-11T05:06:55.538Z,16.49
2022-09-11T05:09:25.477Z,16.51
2022-09-11T05:11:54.462Z,16.54
2022-09-11T05:14:23.555Z,16.62
2022-09-11T05:16:52.947Z,16.64
2022-09-11T05:19:25.253Z,16.57
2022-09-11T05:21:52.777Z,16.51
2022-09-11T05:24:20.343Z,16.51
2022-09-11T05:26:47.760Z,16.54
2022-09-11T05:29:16.621Z,16.59
2022-09-11T05:31:49.806Z,16.56
2022-09-11T05:34:22.232Z,16.65
2022-09-11T05:36:52.049Z,16.68
2022-09-11T05:39:19.569Z,16.75
2022-09-11T05:41:55.367Z,16.85
2022-09-11T05:44:25.365Z,16.96
2022-09-11T05:46:53.158Z,17.04
2022-09-11T05:49:21.714Z,17.07
2022-09-11T05:51:49.246Z,17.14
2022-09-11T05:54:16.707Z,17.19
2022-09-11T05:56:45.202Z,17.31
2022-09-11T05:59:20.518Z,17.42
2022-09-11T06:01:50.331Z,17.53
2022-09-11T06:04:31.976Z,17.64
2022-09-11T06:07:01.646Z,17.75
2022-09-11T06:09:29.906Z,17.84
2022-09-11T06:11:57.356Z,17.93
2022-09-11T06:14:25.165Z,17.99
2022-09-11T06:16:56.927Z,18.11
2022-09-11T06:19:25.481Z,18.18
2022-09-11T06:21:52.729Z,18.25
2022-09-11T06:24:33.492Z,18.39
2022-09-11T06:27:00.747Z,18.48
2022-09-11T06:29:31.132Z,18.54
2022-09-11T06:31:59.901Z,18.48
2022-09-11T06:34:30.264Z,18.50
2022-09-11T06:36:59.553Z,18.46
2022-09-11T06:39:26.958Z,18.48
2022-09-11T06:41:54.916Z,18.58
2022-09-11T06:44:28.248Z,18.69
2022-09-11T06:46:59.713Z,18.66
2022-09-11T06:49:27.503Z,18.65
2022-09-11T06:52:13.270Z,18.69
2022-09-11T06:54:45.654Z,18.79
2022-09-11T06:57:15.704Z,18.86
2022-09-11T06:59:43.160Z,18.94
2022-09-11T07:02:10.770Z,19.05
2022-09-11T07:04:38.788Z,19.19
2022-09-11T07:07:07.319Z,19.16
2022-09-11T07:09:36.484Z,19.15
2022-09-11T07:12:04.019Z,19.03
2022-09-11T07:14:32.831Z,18.99
2022-09-11T07:17:09.378Z,19.02
2022-09-11T07:19:39.692Z,19.00
2022-09-11T07:22:07.021Z,19.16
2022-09-11T07:24:35.297Z,19.36
2022-09-11T07:27:02.533Z,19.40
2022-09-11T07:29:34.439Z,19.45
2022-09-11T07:32:02.165Z,19.59
2022-09-11T07:34:32.215Z,19.69
2022-09-11T07:37:04.505Z,19.76
2022-09-11T07:39:34.506Z,19.82
2022-09-11T07:42:07.370Z,19.87
2022-09-11T07:44:36.026Z,19.90
2022-09-11T07:47:04.114Z,19.92
2022-09-11T07:49:36.148Z,19.93
2022-09-11T07:52:05.200Z,19.98
2022-09-11T07:54:43.861Z,20.05
2022-09-11T07:57:12.474Z,20.28
2022-09-11T07:59:40.436Z,20.32
2022-09-11T08:02:11.638Z,20.34
2022-09-11T08:04:39.121Z,20.38
2022-09-11T08:07:06.777Z,20.30
2022-09-11T08:09:35.723Z,20.35
2022-09-11T08:12:05.209Z,20.51
2022-09-11T08:14:36.917Z,20.50
2022-09-11T08:17:13.622Z,20.61
2022-09-11T08:19:41.390Z,20.76
2022-09-11T08:22:08.974Z,20.83
2022-09-11T08:24:46.143Z,20.82
2022-09-11T08:27:18.113Z,20.86
2022-09-11T08:29:46.926Z,20.88
2022-09-11T08:32:14.736Z,20.99
2022-09-11T08:34:42.684Z,21.04
2022-09-11T08:37:10.523Z,21.12
2022-09-11T08:39:38.446Z,21.07
2022-09-11T08:42:16.073Z,21.16
2022-09-11T08:44:51.424Z,21.31
2022-09-11T08:47:41.421Z,21.47
2022-09-11T08:50:39.987Z,21.47
2022-09-11T08:53:17.040Z,21.50
2022-09-11T08:55:57.258Z,21.42
2022-09-11T08:59:04.227Z,21.45
2022-09-11T09:01:47.207Z,21.78
2022-09-11T09:04:32.993Z,21.82
2022-09-11T09:08:04.509Z,21.80
2022-09-11T09:10:57.131Z,21.91
2022-09-11T09:14:02.771Z,21.81
2022-09-11T09:17:04.519Z,21.80
2022-09-11T09:20:00.600Z,22.04
2022-09-11T09:22:39.612Z,22.15
2022-09-11T09:25:17.061Z,22.23
2022-09-11T09:27:50.102Z,22.23
2022-09-11T09:30:24.427Z,22.13
2022-09-11T09:33:39.036Z,22.23
2022-09-11T09:36:19.288Z,22.35
2022-09-11T09:38:46.842Z,22.28
2022-09-11T09:42:20.265Z,22.52
2022-09-11T09:45:07.279Z,22.79
2022-09-11T09:47:37.056Z,22.90
2022-09-11T09:50:05.473Z,22.08
2022-09-11T09:52:35.967Z,22.09
2022-09-11T09:55:16.277Z,22.38
2022-09-11T09:57:44.229Z,22.76
2022-09-11T10:00:17.888Z,22.73
2022-09-11T10:02:57.931Z,22.82
2022-09-11T10:05:35.155Z,22.62
2022-09-11T10:08:07.336Z,22.80
2022-09-11T10:10:40.577Z,22.84
2022-09-11T10:13:25.332Z,22.32
2022-09-11T10:15:57.284Z,22.36
2022-09-11T10:18:30.820Z,23.07
2022-09-11T10:21:13.303Z,23.34
2022-09-11T10:23:58.081Z,23.54
2022-09-11T10:26:50.505Z,23.65
2022-09-11T10:29:30.712Z,23.62
2022-09-11T10:32:05.347Z,23.75
2022-09-11T10:34:40.371Z,23.82
2022-09-11T10:37:16.034Z,23.77
2022-09-11T10:39:47.341Z,23.19
2022-09-11T10:42:35.175Z,23.35
2022-09-11T10:45:17.105Z,23.91
2022-09-11T10:47:48.449Z,24.11
2022-09-11T10:50:23.195Z,23.98
2022-09-11T10:53:20.620Z,23.26
2022-09-11T10:56:03.393Z,23.65
2022-09-11T10:58:38.665Z,24.65
2022-09-11T11:01:06.209Z,25.81
2022-09-11T11:03:33.577Z,26.71
2022-09-11T11:06:26.110Z,26.53
2022-09-11T11:09:17.324Z,27.03
2022-09-11T11:12:09.752Z,27.42
2022-09-11T11:14:57.878Z,26.99
2022-09-11T11:17:45.140Z,27.45
2022-09-11T11:20:51.775Z,27.82
2022-09-11T11:23:51.791Z,27.74
2022-09-11T11:27:14.044Z,28.24
2022-09-11T11:30:17.142Z,28.32
2022-09-11T11:33:53.585Z,28.45
2022-09-11T11:37:19.936Z,28.01
2022-09-11T11:40:27.872Z,27.12
2022-09-11T11:43:17.519Z,26.21
2022-09-11T11:45:56.105Z,26.39
2022-09-11T11:48:52.388Z,26.42
2022-09-11T11:51:34.893Z,26.19
2022-09-11T11:54:27.234Z,26.00
2022-09-11T11:57:10.362Z,25.76
2022-09-11T11:59:54.612Z,25.80
2022-09-11T12:02:35.778Z,25.59
2022-09-11T12:05:24.550Z,25.38
2022-09-11T12:07:52.336Z,25.17
2022-09-11T12:10:44.933Z,25.74
2022-09-11T12:13:20.101Z,25.32
2022-09-11T12:16:29.059Z,24.92
2022-09-11T12:19:21.262Z,25.70
2022-09-11T12:21:54.902Z,26.36
2022-09-11T12:24:50.506Z,26.84
2022-09-11T12:27:36.272Z,26.71
2022-09-11T12:30:30.853Z,26.67
2022-09-11T12:33:01.314Z,26.76
2022-09-11T12:35:45.282Z,26.47
2022-09-11T12:38:38.045Z,26.54
2022-09-11T12:41:26.191Z,26.24
2022-09-11T12:43:54.657Z,25.96
2022-09-11T12:46:21.668Z,26.45
2022-09-11T12:49:17.831Z,27.14
2022-09-11T12:51:59.460Z,27.23
2022-09-11T12:54:42.362Z,27.18
2022-09-11T12:57:25.709Z,27.04
2022-09-11T13:00:00.537Z,27.11
2022-09-11T13:02:35.937Z,27.02
2022-09-11T13:05:37.775Z,27.16
2022-09-11T13:08:24.853Z,27.14
2022-09-11T13:10:52.157Z,27.13
2022-09-11T13:13:38.429Z,26.80
2022-09-11T13:16:29.267Z,26.97
2022-09-11T13:19:17.067Z,27.34
2022-09-11T13:21:45.869Z,27.50
2022-09-11T13:24:34.621Z,27.40
2022-09-11T13:27:24.530Z,27.79
2022-09-11T13:29:55.954Z,27.75
2022-09-11T13:32:23.787Z,27.81
2022-09-11T13:34:58.690Z,29.12
2022-09-11T13:37:42.227Z,29.39
2022-09-11T13:40:27.029Z,28.31
2022-09-11T13:42:55.135Z,29.57
2022-09-11T13:45:24.776Z,30.21
2022-09-11T13:47:54.685Z,31.58
2022-09-11T13:50:23.430Z,33.01
2022-09-11T13:52:53.543Z,33.98
2022-09-11T13:55:27.091Z,35.66
2022-09-11T13:58:23.157Z,34.94
2022-09-11T14:00:52.830Z,34.67
2022-09-11T14:03:31.464Z,34.70
2022-09-11T14:06:06.730Z,34.41
2022-09-11T14:08:42.528Z,34.71
2022-09-11T14:11:15.268Z,33.56
2022-09-11T14:14:10.379Z,32.50
2022-09-11T14:16:53.000Z,34.78
2022-09-11T14:19:28.596Z,35.32
2022-09-11T14:21:56.064Z,36.08
2022-09-11T14:24:37.365Z,37.04
2022-09-11T14:27:30.638Z,37.73
2022-09-11T14:29:58.185Z,37.18
2022-09-11T14:32:32.525Z,37.32
2022-09-11T14:35:10.020Z,37.70
2022-09-11T14:37:45.728Z,36.42
2022-09-11T14:40:19.264Z,36.87
2022-09-11T14:42:47.437Z,37.37
2022-09-11T14:45:25.846Z,38.49
2022-09-11T14:47:53.813Z,38.31
2022-09-11T14:50:21.752Z,37.99
2022-09-11T14:52:49.146Z,38.31
2022-09-11T14:55:20.118Z,35.75
2022-09-11T14:57:47.862Z,37.28
2022-09-11T15:00:19.821Z,37.58
2022-09-11T15:02:52.035Z,37.05
2022-09-11T15:05:22.925Z,38.42
2022-09-11T15:07:50.840Z,38.54
2022-09-11T15:10:18.535Z,37.87
2022-09-11T15:12:45.943Z,37.79
2022-09-11T15:15:17.679Z,37.49
2022-09-11T15:17:46.152Z,37.40
2022-09-11T15:20:13.541Z,36.83
2022-09-11T15:22:41.179Z,37.52
2022-09-11T15:25:08.620Z,38.62
2022-09-11T15:27:35.957Z,38.79
2022-09-11T15:30:04.821Z,38.79
2022-09-11T15:32:32.180Z,39.82
2022-09-11T15:34:59.465Z,38.04
2022-09-11T15:37:26.821Z,38.38
2022-09-11T15:39:54.050Z,38.68
2022-09-11T15:42:21.397Z,38.44
2022-09-11T15:44:50.565Z,39.46
2022-09-11T15:47:18.052Z,39.48
2022-09-11T15:49:47.555Z,39.60
2022-09-11T15:52:14.897Z,39.89
2022-09-11T15:54:42.805Z,39.74
2022-09-11T15:57:09.993Z,38.94
2022-09-11T15:59:37.280Z,38.67
2022-09-11T16:02:04.728Z,38.84
2022-09-11T16:04:32.236Z,38.66
2022-09-11T16:06:59.854Z,38.16
2022-09-11T16:09:31.365Z,38.59
2022-09-11T16:12:00.955Z,39.14
2022-09-11T16:14:35.232Z,39.59
2022-09-11T16:17:05.691Z,38.95
2022-09-11T16:19:33.789Z,38.67
2022-09-11T16:22:05.442Z,39.18
2022-09-11T16:24:37.372Z,38.62
2022-09-11T16:27:10.385Z,38.07
2022-09-11T16:30:09.421Z,36.30
2022-09-11T16:32:29.087Z,36.49
2022-09-11T16:34:57.869Z,37.03
2022-09-11T16:37:25.924Z,37.82
2022-09-11T16:39:53.251Z,37.04
2022-09-11T16:42:21.619Z,37.63
2022-09-11T16:44:50.145Z,38.12
2022-09-11T16:47:18.021Z,38.08
2022-09-11T16:50:05.879Z,37.44
2022-09-11T16:52:34.829Z,36.41
2022-09-11T16:55:02.255Z,35.73
2022-09-11T16:57:30.933Z,35.70
2022-09-11T16:59:58.176Z,35.62
2022-09-11T17:02:26.475Z,35.76
2022-09-11T17:04:53.661Z,35.33
2022-09-11T17:07:20.937Z,34.60
2022-09-11T17:09:48.368Z,34.10
2022-09-11T17:12:17.669Z,31.13
2022-09-11T17:14:45.005Z,30.17
2022-09-11T17:17:12.163Z,29.90
2022-09-11T17:19:39.595Z,29.10
2022-09-11T17:22:08.389Z,29.05
2022-09-11T17:24:36.321Z,28.70
2022-09-11T17:27:04.221Z,28.44
2022-09-11T17:29:31.416Z,28.18
2022-09-11T17:32:23.922Z,27.88
2022-09-11T17:34:47.638Z,27.55
2022-09-11T17:37:15.728Z,27.09
2022-09-11T17:39:43.318Z,27.01
2022-09-11T17:42:13.291Z,26.91
2022-09-11T17:44:43.492Z,26.76
2022-09-11T17:47:10.771Z,26.72
2022-09-11T17:49:38.099Z,26.46
2022-09-11T17:52:05.536Z,26.10
2022-09-11T17:54:32.865Z,25.82
2022-09-11T17:57:00.104Z,25.61
2022-09-11T17:59:27.680Z,25.42
2022-09-11T18:01:54.961Z,25.32
2022-09-11T18:04:22.499Z,25.13
2022-09-11T18:06:51.049Z,24.99
2022-09-11T18:09:19.875Z,24.83
2022-09-11T18:11:53.893Z,24.77
2022-09-11T18:14:22.884Z,24.67
2022-09-11T18:16:50.271Z,24.47
2022-09-11T18:19:22.375Z,24.31
2022-09-11T18:21:51.071Z,24.17
2022-09-11T18:24:20.543Z,24.04
2022-09-11T18:26:58.576Z,23.81
2022-09-11T18:29:30.375Z,23.75
2022-09-11T18:31:59.936Z,23.65
2022-09-11T18:34:28.559Z,23.63
2022-09-11T18:36:56.017Z,23.54
2022-09-11T18:39:23.876Z,23.47
2022-09-11T18:41:54.880Z,23.35
2022-09-11T18:44:25.101Z,23.24
2022-09-11T18:46:54.490Z,23.21
2022-09-11T18:49:22.624Z,23.06
2022-09-11T18:51:50.695Z,23.02
2022-09-11T18:54:21.014Z,22.90
2022-09-11T18:56:50.582Z,22.80
2022-09-11T18:59:20.092Z,22.69
2022-09-11T19:01:48.854Z,22.62
2022-09-11T19:04:16.794Z,22.53
2022-09-11T19:06:45.255Z,22.50
2022-09-11T19:09:13.379Z,22.50
2022-09-11T19:11:41.457Z,22.48
2022-09-11T19:14:12.503Z,22.40
2022-09-11T19:16:40.984Z,22.30
2022-09-11T19:19:09.389Z,22.24
2022-09-11T19:21:38.370Z,22.19
2022-09-11T19:24:08.730Z,22.13
2022-09-11T19:26:43.434Z,22.08
2022-09-11T19:29:15.863Z,22.04
2022-09-11T19:31:43.317Z,22.01
2022-09-11T19:34:13.231Z,21.95
2022-09-11T19:36:43.394Z,21.90
2022-09-11T19:39:11.408Z,21.83
2022-09-11T19:41:40.003Z,21.79
2022-09-11T19:44:13.042Z,21.78
2022-09-11T19:46:45.575Z,21.74
2022-09-11T19:49:13.501Z,21.76
2022-09-11T19:51:42.742Z,21.64
2022-09-11T19:54:13.300Z,21.59
2022-09-11T19:56:47.506Z,21.46
2022-09-11T19:59:15.190Z,21.29
2022-09-11T20:01:43.682Z,21.24
2022-09-11T20:04:15.938Z,21.16
2022-09-11T20:09:30.288Z,21.10
2022-09-11T20:12:00.621Z,20.97
2022-09-11T20:14:30.380Z,20.87
2022-09-11T20:17:00.887Z,20.79
2022-09-11T20:19:29.861Z,20.72
2022-09-11T20:21:57.422Z,20.77
2022-09-11T20:24:26.338Z,20.84
2022-09-11T20:26:54.732Z,20.90
2022-09-11T20:29:23.137Z,20.89
2022-09-11T20:31:51.145Z,20.90
2022-09-11T20:34:22.451Z,20.95
2022-09-11T20:36:49.683Z,20.91
2022-09-11T20:39:20.070Z,20.87
2022-09-11T20:41:49.584Z,20.83
2022-09-11T20:44:17.088Z,20.75
2022-09-11T20:46:47.511Z,20.67
2022-09-11T20:49:14.921Z,20.63
2022-09-11T20:51:42.919Z,20.55
2022-09-11T20:54:10.504Z,20.48
2022-09-11T20:56:37.826Z,20.32
2022-09-11T20:59:05.241Z,20.28
2022-09-11T21:01:33.956Z,20.29
2022-09-11T21:04:04.646Z,20.32
2022-09-11T21:06:35.232Z,20.32
2022-09-11T21:09:09.137Z,20.31
2022-09-11T21:11:38.366Z,20.34
2022-09-11T21:14:07.436Z,20.27
2022-09-11T21:16:35.099Z,20.18
2022-09-11T21:19:04.707Z,20.13
2022-09-11T21:21:35.091Z,20.16
2022-09-11T21:24:06.756Z,20.16
2022-09-11T21:26:34.856Z,20.12
2022-09-11T21:29:07.727Z,20.04
2022-09-11T21:31:36.154Z,19.98
2022-09-11T21:34:03.805Z,19.93
2022-09-11T21:36:32.223Z,19.92
2022-09-11T21:38:59.491Z,19.83
2022-09-11T21:41:26.674Z,19.79
2022-09-11T21:43:54.135Z,19.79
2022-09-11T21:46:21.427Z,19.74
2022-09-11T21:48:48.695Z,19.75
2022-09-11T21:51:19.941Z,19.73
2022-09-11T21:53:49.801Z,19.68
2022-09-11T21:56:29.474Z,19.68
2022-09-11T21:58:58.008Z,19.64
2022-09-11T22:01:27.528Z,19.64
2022-09-11T22:03:55.482Z,19.57
2022-09-11T22:06:24.398Z,19.58
2022-09-11T22:08:53.509Z,19.53
2022-09-11T22:11:21.826Z,19.51
2022-09-11T22:13:50.046Z,19.41
2022-09-11T22:16:20.203Z,19.32
2022-09-11T22:18:52.732Z,19.32
2022-09-11T22:21:20.295Z,19.28
2022-09-11T22:23:47.592Z,19.25
2022-09-11T22:26:20.379Z,19.18
2022-09-11T22:28:47.894Z,19.16
2022-09-11T22:31:21.108Z,19.14
2022-09-11T22:33:48.518Z,19.10
2022-09-11T22:36:21.235Z,19.13
2022-09-11T22:38:48.938Z,19.07
2022-09-11T22:41:17.338Z,18.99
2022-09-11T22:43:47.345Z,18.91
2022-09-11T22:46:16.219Z,18.83
2022-09-11T22:48:43.814Z,18.82
2022-09-11T22:51:11.510Z,18.83
2022-09-11T22:53:42.875Z,18.78
2022-09-11T22:56:10.609Z,18.70
2022-09-11T22:58:38.502Z,18.66
2022-09-11T23:01:10.222Z,18.65
2022-09-11T23:03:38.047Z,18.62
2022-09-11T23:06:24.364Z,18.62
2022-09-11T23:08:52.522Z,18.58
2022-09-11T23:11:20.401Z,18.54
2022-09-11T23:13:50.095Z,18.51
2022-09-11T23:16:22.670Z,18.48
2022-09-11T23:18:56.151Z,18.42
2022-09-11T23:21:25.097Z,18.46
2022-09-11T23:23:55.764Z,18.45
2022-09-11T23:26:25.150Z,18.44
2022-09-11T23:28:53.392Z,18.39
2022-09-11T23:31:28.833Z,18.44
2022-09-11T23:34:01.559Z,18.48
2022-09-11T23:36:30.325Z,18.42
2022-09-11T23:38:58.401Z,18.36
2022-09-11T23:41:26.399Z,18.37
2022-09-11T23:43:54.249Z,18.33
2022-09-11T23:46:21.843Z,18.33
2022-09-11T23:48:50.613Z,18.37
2022-09-11T23:51:17.895Z,18.36
2022-09-11T23:53:45.436Z,18.36
2022-09-11T23:56:15.021Z,18.32
2022-09-11T23:58:43.177Z,18.35
